sensor_id;sensor_type;location;lat;lon;timestamp;temperature;humidity
28947;DHT22;16052;50.930;5.326;2022-09-13T00:00:42;21.80;1.00
28947;DHT22;16052;50.930;5.326;2022-09-13T00:03:09;21.50;1.00
28947;DHT22;16052;50.930;5.326;2022-09-13T00:05:36;21.10;6.50
28947;DHT22;16052;50.930;5.326;2022-09-13T00:08:02;20.60;20.70
28947;DHT22;16052;50.930;5.326;2022-09-13T00:10:28;20.70;21.60
28947;DHT22;16052;50.930;5.326;2022-09-13T00:12:54;20.60;22.40
28947;DHT22;16052;50.930;5.326;2022-09-13T00:15:20;20.60;21.20
28947;DHT22;16052;50.930;5.326;2022-09-13T00:17:46;20.70;21.00
28947;DHT22;16052;50.930;5.326;2022-09-13T00:20:12;20.80;20.40
28947;DHT22;16052;50.930;5.326;2022-09-13T00:22:39;20.90;16.80
28947;DHT22;16052;50.930;5.326;2022-09-13T00:25:06;21.00;14.20
28947;DHT22;16052;50.930;5.326;2022-09-13T00:27:33;20.70;17.30
28947;DHT22;16052;50.930;5.326;2022-09-13T00:29:59;20.80;17.50
28947;DHT22;16052;50.930;5.326;2022-09-13T00:32:25;20.70;18.10
28947;DHT22;16052;50.930;5.326;2022-09-13T00:34:51;20.30;29.30
28947;DHT22;16052;50.930;5.326;2022-09-13T00:37:16;20.20;30.90
28947;DHT22;16052;50.930;5.326;2022-09-13T00:39:42;20.10;35.10
28947;DHT22;16052;50.930;5.326;2022-09-13T00:42:12;20.10;35.90
28947;DHT22;16052;50.930;5.326;2022-09-13T00:45:35;20.40;24.60
28947;DHT22;16052;50.930;5.326;2022-09-13T00:47:55;20.40;24.00
28947;DHT22;16052;50.930;5.326;2022-09-13T00:50:35;20.20;27.20
28947;DHT22;16052;50.930;5.326;2022-09-13T00:53:15;20.30;27.30
28947;DHT22;16052;50.930;5.326;2022-09-13T00:58:43;20.40;22.80
28947;DHT22;16052;50.930;5.326;2022-09-13T01:01:12;20.40;23.70
28947;DHT22;16052;50.930;5.326;2022-09-13T01:03:39;20.40;23.70
28947;DHT22;16052;50.930;5.326;2022-09-13T01:06:21;20.40;18.80
28947;DHT22;16052;50.930;5.326;2022-09-13T01:08:51;20.40;22.10
28947;DHT22;16052;50.930;5.326;2022-09-13T01:11:26;20.40;22.80
28947;DHT22;16052;50.930;5.326;2022-09-13T01:13:54;20.40;22.20
28947;DHT22;16052;50.930;5.326;2022-09-13T01:16:21;20.20;26.80
28947;DHT22;16052;50.930;5.326;2022-09-13T01:18:47;20.10;28.60
28947;DHT22;16052;50.930;5.326;2022-09-13T01:24:15;20.40;22.40
28947;DHT22;16052;50.930;5.326;2022-09-13T01:37:48;19.90;33.60
28947;DHT22;16052;50.930;5.326;2022-09-13T01:43:06;20.10;27.80
28947;DHT22;16052;50.930;5.326;2022-09-13T01:51:05;19.90;27.30
28947;DHT22;16052;50.930;5.326;2022-09-13T01:53:54;19.90;29.70
28947;DHT22;16052;50.930;5.326;2022-09-13T01:56:31;19.90;30.40
28947;DHT22;16052;50.930;5.326;2022-09-13T01:59:04;19.90;31.80
28947;DHT22;16052;50.930;5.326;2022-09-13T02:02:07;19.80;33.10
28947;DHT22;16052;50.930;5.326;2022-09-13T02:04:46;19.80;35.30
28947;DHT22;16052;50.930;5.326;2022-09-13T02:07:15;19.90;30.70
28947;DHT22;16052;50.930;5.326;2022-09-13T02:09:47;19.80;29.50
28947;DHT22;16052;50.930;5.326;2022-09-13T02:12:20;20.00;27.40
28947;DHT22;16052;50.930;5.326;2022-09-13T02:14:56;20.00;26.00
28947;DHT22;16052;50.930;5.326;2022-09-13T02:17:26;20.10;21.30
28947;DHT22;16052;50.930;5.326;2022-09-13T02:20:07;20.40;15.60
28947;DHT22;16052;50.930;5.326;2022-09-13T02:22:39;20.30;16.80
28947;DHT22;16052;50.930;5.326;2022-09-13T02:25:09;20.60;9.00
28947;DHT22;16052;50.930;5.326;2022-09-13T02:27:37;20.70;6.00
28947;DHT22;16052;50.930;5.326;2022-09-13T02:30:07;20.70;5.30
28947;DHT22;16052;50.930;5.326;2022-09-13T02:32:57;21.00;1.00
28947;DHT22;16052;50.930;5.326;2022-09-13T02:35:25;20.80;1.00
28947;DHT22;16052;50.930;5.326;2022-09-13T02:38:03;20.80;3.10
28947;DHT22;16052;50.930;5.326;2022-09-13T02:40:36;20.60;5.10
28947;DHT22;16052;50.930;5.326;2022-09-13T02:43:09;20.50;12.00
28947;DHT22;16052;50.930;5.326;2022-09-13T02:45:56;20.70;7.40
28947;DHT22;16052;50.930;5.326;2022-09-13T02:48:57;20.90;2.20
28947;DHT22;16052;50.930;5.326;2022-09-13T02:54:13;21.30;1.00
28947;DHT22;16052;50.930;5.326;2022-09-13T02:56:52;21.50;1.00
28947;DHT22;16052;50.930;5.326;2022-09-13T02:59:21;21.50;1.00
28947;DHT22;16052;50.930;5.326;2022-09-13T03:02:04;21.50;1.00
28947;DHT22;16052;50.930;5.326;2022-09-13T03:04:30;21.50;1.00
28947;DHT22;16052;50.930;5.326;2022-09-13T03:06:56;21.50;1.00
28947;DHT22;16052;50.930;5.326;2022-09-13T03:09:22;21.50;1.00
28947;DHT22;16052;50.930;5.326;2022-09-13T03:14:44;21.60;1.00
28947;DHT22;16052;50.930;5.326;2022-09-13T03:17:51;21.60;1.00
28947;DHT22;16052;50.930;5.326;2022-09-13T03:20:48;21.80;1.00
28947;DHT22;16052;50.930;5.326;2022-09-13T03:26:30;21.90;1.00
28947;DHT22;16052;50.930;5.326;2022-09-13T03:34:23;21.60;1.00
28947;DHT22;16052;50.930;5.326;2022-09-13T03:37:06;21.70;1.00
28947;DHT22;16052;50.930;5.326;2022-09-13T03:42:17;21.60;1.00
28947;DHT22;16052;50.930;5.326;2022-09-13T03:44:48;21.50;1.00
28947;DHT22;16052;50.930;5.326;2022-09-13T03:47:15;21.40;1.00
28947;DHT22;16052;50.930;5.326;2022-09-13T03:49:42;21.30;1.00
28947;DHT22;16052;50.930;5.326;2022-09-13T03:52:09;21.30;1.00
28947;DHT22;16052;50.930;5.326;2022-09-13T03:54:37;21.20;1.00
28947;DHT22;16052;50.930;5.326;2022-09-13T03:57:10;21.20;1.00
28947;DHT22;16052;50.930;5.326;2022-09-13T03:59:38;20.80;8.10
28947;DHT22;16052;50.930;5.326;2022-09-13T04:02:06;20.60;15.30
28947;DHT22;16052;50.930;5.326;2022-09-13T04:04:39;20.40;19.70
28947;DHT22;16052;50.930;5.326;2022-09-13T04:07:05;20.40;20.00
28947;DHT22;16052;50.930;5.326;2022-09-13T04:09:32;20.60;19.10
28947;DHT22;16052;50.930;5.326;2022-09-13T04:11:58;20.60;15.50
28947;DHT22;16052;50.930;5.326;2022-09-13T04:14:24;20.50;20.00
28947;DHT22;16052;50.930;5.326;2022-09-13T04:16:55;20.60;16.60
28947;DHT22;16052;50.930;5.326;2022-09-13T04:19:23;20.60;17.50
28947;DHT22;16052;50.930;5.326;2022-09-13T04:21:50;20.60;16.70
28947;DHT22;16052;50.930;5.326;2022-09-13T04:24:16;20.40;22.10
28947;DHT22;16052;50.930;5.326;2022-09-13T04:26:43;20.10;31.10
28947;DHT22;16052;50.930;5.326;2022-09-13T04:29:09;20.30;28.50
28947;DHT22;16052;50.930;5.326;2022-09-13T04:31:36;20.40;24.90
28947;DHT22;16052;50.930;5.326;2022-09-13T04:34:02;20.60;23.70
28947;DHT22;16052;50.930;5.326;2022-09-13T04:36:28;20.40;27.90
28947;DHT22;16052;50.930;5.326;2022-09-13T04:38:53;20.40;26.70
28947;DHT22;16052;50.930;5.326;2022-09-13T04:41:19;20.30;29.50
28947;DHT22;16052;50.930;5.326;2022-09-13T04:43:49;20.50;26.70
28947;DHT22;16052;50.930;5.326;2022-09-13T04:46:15;20.40;28.90
28947;DHT22;16052;50.930;5.326;2022-09-13T04:48:41;20.40;28.70
28947;DHT22;16052;50.930;5.326;2022-09-13T04:51:06;20.60;26.00
28947;DHT22;16052;50.930;5.326;2022-09-13T04:53:32;20.60;24.70
28947;DHT22;16052;50.930;5.326;2022-09-13T04:56:02;20.60;23.30
28947;DHT22;16052;50.930;5.326;2022-09-13T04:58:28;20.20;31.50
28947;DHT22;16052;50.930;5.326;2022-09-13T05:01:06;20.30;32.50
28947;DHT22;16052;50.930;5.326;2022-09-13T05:03:34;19.80;47.20
28947;DHT22;16052;50.930;5.326;2022-09-13T05:06:01;19.80;51.70
28947;DHT22;16052;50.930;5.326;2022-09-13T05:08:27;20.10;41.60
28947;DHT22;16052;50.930;5.326;2022-09-13T05:10:53;20.40;33.40
28947;DHT22;16052;50.930;5.326;2022-09-13T05:13:19;20.50;30.00
28947;DHT22;16052;50.930;5.326;2022-09-13T05:15:45;20.50;27.60
28947;DHT22;16052;50.930;5.326;2022-09-13T05:18:12;20.50;28.10
28947;DHT22;16052;50.930;5.326;2022-09-13T05:20:38;20.30;34.30
28947;DHT22;16052;50.930;5.326;2022-09-13T05:23:03;20.30;35.00
28947;DHT22;16052;50.930;5.326;2022-09-13T05:25:29;20.50;31.10
28947;DHT22;16052;50.930;5.326;2022-09-13T05:27:56;20.60;27.80
28947;DHT22;16052;50.930;5.326;2022-09-13T05:30:21;20.60;26.80
28947;DHT22;16052;50.930;5.326;2022-09-13T05:32:47;20.70;24.30
28947;DHT22;16052;50.930;5.326;2022-09-13T05:35:12;20.90;19.90
28947;DHT22;16052;50.930;5.326;2022-09-13T05:37:38;20.80;23.40
28947;DHT22;16052;50.930;5.326;2022-09-13T05:40:04;20.70;25.70
28947;DHT22;16052;50.930;5.326;2022-09-13T05:42:30;20.70;26.20
28947;DHT22;16052;50.930;5.326;2022-09-13T05:44:55;20.80;23.30
28947;DHT22;16052;50.930;5.326;2022-09-13T05:47:22;20.70;25.40
28947;DHT22;16052;50.930;5.326;2022-09-13T05:49:47;20.70;25.70
28947;DHT22;16052;50.930;5.326;2022-09-13T05:52:13;20.80;24.50
28947;DHT22;16052;50.930;5.326;2022-09-13T05:54:38;20.80;24.80
28947;DHT22;16052;50.930;5.326;2022-09-13T05:57:04;20.80;22.30
28947;DHT22;16052;50.930;5.326;2022-09-13T05:59:30;20.80;23.50
28947;DHT22;16052;50.930;5.326;2022-09-13T06:01:56;20.70;28.90
28947;DHT22;16052;50.930;5.326;2022-09-13T06:04:22;20.70;29.10
28947;DHT22;16052;50.930;5.326;2022-09-13T06:06:48;20.80;27.80
28947;DHT22;16052;50.930;5.326;2022-09-13T06:09:14;20.90;26.80
28947;DHT22;16052;50.930;5.326;2022-09-13T06:11:40;21.00;26.20
28947;DHT22;16052;50.930;5.326;2022-09-13T06:14:06;21.30;20.00
28947;DHT22;16052;50.930;5.326;2022-09-13T06:16:32;21.30;16.70
28947;DHT22;16052;50.930;5.326;2022-09-13T06:18:58;21.20;18.80
28947;DHT22;16052;50.930;5.326;2022-09-13T06:21:24;21.20;13.80
28947;DHT22;16052;50.930;5.326;2022-09-13T06:23:51;21.20;14.10
28947;DHT22;16052;50.930;5.326;2022-09-13T06:26:19;21.10;15.40
28947;DHT22;16052;50.930;5.326;2022-09-13T06:28:50;20.80;19.40
28947;DHT22;16052;50.930;5.326;2022-09-13T06:31:18;20.90;21.20
28947;DHT22;16052;50.930;5.326;2022-09-13T06:33:44;20.90;21.60
28947;DHT22;16052;50.930;5.326;2022-09-13T06:36:18;20.70;22.50
28947;DHT22;16052;50.930;5.326;2022-09-13T06:38:45;20.30;32.10
28947;DHT22;16052;50.930;5.326;2022-09-13T06:41:13;20.30;38.00
28947;DHT22;16052;50.930;5.326;2022-09-13T06:43:40;20.50;34.40
28947;DHT22;16052;50.930;5.326;2022-09-13T06:46:09;20.30;36.80
28947;DHT22;16052;50.930;5.326;2022-09-13T06:48:37;20.20;43.50
28947;DHT22;16052;50.930;5.326;2022-09-13T06:51:08;20.10;51.50
28947;DHT22;16052;50.930;5.326;2022-09-13T06:53:35;20.20;45.70
28947;DHT22;16052;50.930;5.326;2022-09-13T06:58:32;20.20;48.60
28947;DHT22;16052;50.930;5.326;2022-09-13T07:01:13;20.20;50.80
28947;DHT22;16052;50.930;5.326;2022-09-13T07:03:42;20.20;49.30
28947;DHT22;16052;50.930;5.326;2022-09-13T07:06:12;20.30;49.00
28947;DHT22;16052;50.930;5.326;2022-09-13T07:08:39;20.20;49.80
28947;DHT22;16052;50.930;5.326;2022-09-13T07:11:05;20.20;52.80
28947;DHT22;16052;50.930;5.326;2022-09-13T07:13:31;20.20;53.30
28947;DHT22;16052;50.930;5.326;2022-09-13T07:16:04;20.50;45.60
28947;DHT22;16052;50.930;5.326;2022-09-13T07:18:30;20.70;39.70
28947;DHT22;16052;50.930;5.326;2022-09-13T07:21:04;20.70;39.20
28947;DHT22;16052;50.930;5.326;2022-09-13T07:23:31;20.80;43.20
28947;DHT22;16052;50.930;5.326;2022-09-13T07:25:58;20.80;43.60
28947;DHT22;16052;50.930;5.326;2022-09-13T07:28:37;20.90;39.90
28947;DHT22;16052;50.930;5.326;2022-09-13T07:31:27;21.00;35.80
28947;DHT22;16052;50.930;5.326;2022-09-13T07:33:58;21.10;32.60
28947;DHT22;16052;50.930;5.326;2022-09-13T07:36:25;21.20;27.50
28947;DHT22;16052;50.930;5.326;2022-09-13T07:38:51;21.20;30.00
28947;DHT22;16052;50.930;5.326;2022-09-13T07:41:19;21.00;33.00
28947;DHT22;16052;50.930;5.326;2022-09-13T07:43:45;20.90;38.30
28947;DHT22;16052;50.930;5.326;2022-09-13T07:46:14;20.80;42.30
28947;DHT22;16052;50.930;5.326;2022-09-13T07:48:41;20.80;40.20
28947;DHT22;16052;50.930;5.326;2022-09-13T07:51:10;20.70;45.30
28947;DHT22;16052;50.930;5.326;2022-09-13T07:53:37;20.70;52.20
28947;DHT22;16052;50.930;5.326;2022-09-13T07:58:32;21.30;33.90
28947;DHT22;16052;50.930;5.326;2022-09-13T08:01:07;21.20;38.50
28947;DHT22;16052;50.930;5.326;2022-09-13T08:03:35;21.20;41.50
28947;DHT22;16052;50.930;5.326;2022-09-13T08:06:01;21.30;39.90
28947;DHT22;16052;50.930;5.326;2022-09-13T08:08:28;21.30;45.80
28947;DHT22;16052;50.930;5.326;2022-09-13T08:10:54;21.50;31.60
28947;DHT22;16052;50.930;5.326;2022-09-13T08:13:20;21.60;28.30
28947;DHT22;16052;50.930;5.326;2022-09-13T08:15:46;21.70;24.20
28947;DHT22;16052;50.930;5.326;2022-09-13T08:18:12;21.80;26.00
28947;DHT22;16052;50.930;5.326;2022-09-13T08:20:38;21.90;25.40
28947;DHT22;16052;50.930;5.326;2022-09-13T08:23:06;21.90;21.00
28947;DHT22;16052;50.930;5.326;2022-09-13T08:25:35;22.10;21.40
28947;DHT22;16052;50.930;5.326;2022-09-13T08:28:05;22.00;24.00
28947;DHT22;16052;50.930;5.326;2022-09-13T08:30:33;22.00;28.60
28947;DHT22;16052;50.930;5.326;2022-09-13T08:33:05;22.30;25.40
28947;DHT22;16052;50.930;5.326;2022-09-13T08:35:32;22.30;22.00
28947;DHT22;16052;50.930;5.326;2022-09-13T08:37:58;22.60;9.30
28947;DHT22;16052;50.930;5.326;2022-09-13T08:40:27;22.60;8.10
28947;DHT22;16052;50.930;5.326;2022-09-13T08:45:24;22.80;7.30
28947;DHT22;16052;50.930;5.326;2022-09-13T08:48:03;22.80;11.50
28947;DHT22;16052;50.930;5.326;2022-09-13T08:50:33;22.90;9.90
28947;DHT22;16052;50.930;5.326;2022-09-13T08:53:21;23.10;5.80
28947;DHT22;16052;50.930;5.326;2022-09-13T08:58:47;23.60;1.00
28947;DHT22;16052;50.930;5.326;2022-09-13T09:06:47;24.00;1.00
28947;DHT22;16052;50.930;5.326;2022-09-13T09:09:18;24.10;1.00
28947;DHT22;16052;50.930;5.326;2022-09-13T09:14:42;24.30;1.00
28947;DHT22;16052;50.930;5.326;2022-09-13T09:17:20;24.40;1.00
28947;DHT22;16052;50.930;5.326;2022-09-13T09:20:15;24.60;1.00
28947;DHT22;16052;50.930;5.326;2022-09-13T09:22:42;24.50;1.00
28947;DHT22;16052;50.930;5.326;2022-09-13T09:25:10;24.70;1.00
28947;DHT22;16052;50.930;5.326;2022-09-13T09:27:36;24.50;1.00
28947;DHT22;16052;50.930;5.326;2022-09-13T09:30:02;24.30;1.00
28947;DHT22;16052;50.930;5.326;2022-09-13T09:33:01;24.30;1.00
28947;DHT22;16052;50.930;5.326;2022-09-13T09:35:58;24.40;1.00
28947;DHT22;16052;50.930;5.326;2022-09-13T09:38:38;24.30;1.00
28947;DHT22;16052;50.930;5.326;2022-09-13T09:44:31;24.30;1.00
28947;DHT22;16052;50.930;5.326;2022-09-13T09:46:34;24.30;1.00
28947;DHT22;16052;50.930;5.326;2022-09-13T09:49:16;24.30;1.00
28947;DHT22;16052;50.930;5.326;2022-09-13T09:52:02;24.30;1.00
28947;DHT22;16052;50.930;5.326;2022-09-13T09:54:33;24.20;1.00
28947;DHT22;16052;50.930;5.326;2022-09-13T09:57:00;24.20;1.00
28947;DHT22;16052;50.930;5.326;2022-09-13T09:59:30;24.20;1.00
28947;DHT22;16052;50.930;5.326;2022-09-13T10:01:58;24.00;1.00
28947;DHT22;16052;50.930;5.326;2022-09-13T10:04:25;24.10;1.00
28947;DHT22;16052;50.930;5.326;2022-09-13T10:07:08;24.20;1.00
28947;DHT22;16052;50.930;5.326;2022-09-13T10:09:35;24.50;1.00
28947;DHT22;16052;50.930;5.326;2022-09-13T10:12:02;24.40;1.00
28947;DHT22;16052;50.930;5.326;2022-09-13T10:14:48;24.60;1.00
28947;DHT22;16052;50.930;5.326;2022-09-13T10:20:35;24.70;1.00
28947;DHT22;16052;50.930;5.326;2022-09-13T10:22:36;24.80;1.00
28947;DHT22;16052;50.930;5.326;2022-09-13T10:25:21;24.90;1.00
28947;DHT22;16052;50.930;5.326;2022-09-13T10:27:50;24.90;1.00
28947;DHT22;16052;50.930;5.326;2022-09-13T10:30:41;24.90;1.00
28947;DHT22;16052;50.930;5.326;2022-09-13T10:35:57;25.10;1.00
28947;DHT22;16052;50.930;5.326;2022-09-13T10:38:33;25.10;1.00
28947;DHT22;16052;50.930;5.326;2022-09-13T10:41:06;25.10;1.00
28947;DHT22;16052;50.930;5.326;2022-09-13T10:43:33;25.10;1.00
28947;DHT22;16052;50.930;5.326;2022-09-13T10:46:02;25.30;1.00
28947;DHT22;16052;50.930;5.326;2022-09-13T10:48:30;25.30;1.00
28947;DHT22;16052;50.930;5.326;2022-09-13T10:54:19;25.30;1.00
28947;DHT22;16052;50.930;5.326;2022-09-13T10:56:47;25.50;1.00
28947;DHT22;16052;50.930;5.326;2022-09-13T10:59:17;25.60;1.00
28947;DHT22;16052;50.930;5.326;2022-09-13T11:01:55;25.80;1.00
28947;DHT22;16052;50.930;5.326;2022-09-13T11:07:37;25.40;1.00
28947;DHT22;16052;50.930;5.326;2022-09-13T11:15:30;25.30;1.00
28947;DHT22;16052;50.930;5.326;2022-09-13T11:32:28;25.50;1.00
28947;DHT22;16052;50.930;5.326;2022-09-13T11:44:25;25.30;1.00
28947;DHT22;16052;50.930;5.326;2022-09-13T11:52:34;25.00;1.00
28947;DHT22;16052;50.930;5.326;2022-09-13T11:55:27;24.90;1.00
28947;DHT22;16052;50.930;5.326;2022-09-13T11:58:18;24.70;1.00
28947;DHT22;16052;50.930;5.326;2022-09-13T12:00:56;24.80;1.00
28947;DHT22;16052;50.930;5.326;2022-09-13T12:03:42;25.00;1.00
28947;DHT22;16052;50.930;5.326;2022-09-13T12:06:17;25.20;1.00
28947;DHT22;16052;50.930;5.326;2022-09-13T12:08:55;25.40;1.00
28947;DHT22;16052;50.930;5.326;2022-09-13T12:11:26;25.70;1.00
28947;DHT22;16052;50.930;5.326;2022-09-13T12:14:16;25.90;1.00
28947;DHT22;16052;50.930;5.326;2022-09-13T12:16:57;25.90;1.00
28947;DHT22;16052;50.930;5.326;2022-09-13T12:22:43;26.00;1.00
28947;DHT22;16052;50.930;5.326;2022-09-13T12:25:24;25.90;1.00
28947;DHT22;16052;50.930;5.326;2022-09-13T12:28:16;26.20;1.00
28947;DHT22;16052;50.930;5.326;2022-09-13T12:30:49;26.00;1.00
28947;DHT22;16052;50.930;5.326;2022-09-13T12:33:16;26.10;1.00
28947;DHT22;16052;50.930;5.326;2022-09-13T12:35:59;26.10;1.00
28947;DHT22;16052;50.930;5.326;2022-09-13T12:42:08;25.90;1.00
28947;DHT22;16052;50.930;5.326;2022-09-13T12:44:57;25.80;1.00
28947;DHT22;16052;50.930;5.326;2022-09-13T12:50:41;25.90;1.00
28947;DHT22;16052;50.930;5.326;2022-09-13T12:55:56;26.20;1.00
28947;DHT22;16052;50.930;5.326;2022-09-13T13:03:35;25.90;1.00
28947;DHT22;16052;50.930;5.326;2022-09-13T13:09:51;25.90;1.00
28947;DHT22;16052;50.930;5.326;2022-09-13T13:11:52;25.90;1.00
28947;DHT22;16052;50.930;5.326;2022-09-13T13:23:28;25.60;1.00
28947;DHT22;16052;50.930;5.326;2022-09-13T13:41:56;25.60;1.00
28947;DHT22;16052;50.930;5.326;2022-09-13T13:46:52;25.90;1.00
28947;DHT22;16052;50.930;5.326;2022-09-13T14:00:32;26.20;1.00
28947;DHT22;16052;50.930;5.326;2022-09-13T14:03:10;26.00;1.00
28947;DHT22;16052;50.930;5.326;2022-09-13T14:05:45;25.90;1.00
28947;DHT22;16052;50.930;5.326;2022-09-13T14:11:40;25.40;1.00
28947;DHT22;16052;50.930;5.326;2022-09-13T14:19:49;25.10;1.00
28947;DHT22;16052;50.930;5.326;2022-09-13T14:22:20;25.20;1.00
28947;DHT22;16052;50.930;5.326;2022-09-13T14:24:48;25.10;1.00
28947;DHT22;16052;50.930;5.326;2022-09-13T14:29:51;25.30;1.00
28947;DHT22;16052;50.930;5.326;2022-09-13T14:32:21;25.30;1.00
28947;DHT22;16052;50.930;5.326;2022-09-13T14:34:54;25.30;1.00
28947;DHT22;16052;50.930;5.326;2022-09-13T14:37:24;25.20;1.00
28947;DHT22;16052;50.930;5.326;2022-09-13T14:40:25;25.20;1.00
28947;DHT22;16052;50.930;5.326;2022-09-13T14:42:54;25.10;1.00
28947;DHT22;16052;50.930;5.326;2022-09-13T14:45:25;25.00;1.00
28947;DHT22;16052;50.930;5.326;2022-09-13T14:50:30;25.10;1.00
28947;DHT22;16052;50.930;5.326;2022-09-13T14:53:00;24.80;1.00
28947;DHT22;16052;50.930;5.326;2022-09-13T14:55:30;24.80;1.00
28947;DHT22;16052;50.930;5.326;2022-09-13T14:57:59;24.60;1.00
28947;DHT22;16052;50.930;5.326;2022-09-13T15:00:30;24.50;9.60
28947;DHT22;16052;50.930;5.326;2022-09-13T15:03:12;24.50;13.10
28947;DHT22;16052;50.930;5.326;2022-09-13T15:05:39;24.40;20.80
28947;DHT22;16052;50.930;5.326;2022-09-13T15:10:51;24.20;33.40
28947;DHT22;16052;50.930;5.326;2022-09-13T15:13:16;24.00;41.20
28947;DHT22;16052;50.930;5.326;2022-09-13T15:15:43;23.70;48.60
28947;DHT22;16052;50.930;5.326;2022-09-13T15:23:28;23.50;60.50
28947;DHT22;16052;50.930;5.326;2022-09-13T15:28:33;23.60;67.50
28947;DHT22;16052;50.930;5.326;2022-09-13T15:31:31;23.70;66.20
28947;DHT22;16052;50.930;5.326;2022-09-13T15:34:30;23.60;70.30
28947;DHT22;16052;50.930;5.326;2022-09-13T15:37:10;23.60;72.50
28947;DHT22;16052;50.930;5.326;2022-09-13T15:39:49;23.70;72.00
28947;DHT22;16052;50.930;5.326;2022-09-13T15:42:16;23.70;68.90
28947;DHT22;16052;50.930;5.326;2022-09-13T15:44:42;23.60;72.20
28947;DHT22;16052;50.930;5.326;2022-09-13T15:47:16;23.60;73.10
28947;DHT22;16052;50.930;5.326;2022-09-13T15:49:48;23.60;75.30
28947;DHT22;16052;50.930;5.326;2022-09-13T15:52:16;23.60;75.90
28947;DHT22;16052;50.930;5.326;2022-09-13T15:54:43;23.50;83.00
28947;DHT22;16052;50.930;5.326;2022-09-13T15:57:37;23.50;85.40
28947;DHT22;16052;50.930;5.326;2022-09-13T16:00:03;23.50;91.00
28947;DHT22;16052;50.930;5.326;2022-09-13T16:02:32;23.80;81.50
28947;DHT22;16052;50.930;5.326;2022-09-13T16:04:58;23.70;71.30
28947;DHT22;16052;50.930;5.326;2022-09-13T16:07:24;23.70;60.60
28947;DHT22;16052;50.930;5.326;2022-09-13T16:09:51;23.60;61.80
28947;DHT22;16052;50.930;5.326;2022-09-13T16:12:17;23.50;60.30
28947;DHT22;16052;50.930;5.326;2022-09-13T16:14:44;23.40;68.30
28947;DHT22;16052;50.930;5.326;2022-09-13T16:17:16;23.60;64.80
28947;DHT22;16052;50.930;5.326;2022-09-13T16:19:43;23.60;63.40
28947;DHT22;16052;50.930;5.326;2022-09-13T16:22:09;23.60;68.80
28947;DHT22;16052;50.930;5.326;2022-09-13T16:24:34;23.40;71.20
28947;DHT22;16052;50.930;5.326;2022-09-13T16:27:03;23.30;79.30
28947;DHT22;16052;50.930;5.326;2022-09-13T16:29:29;23.20;87.70
28947;DHT22;16052;50.930;5.326;2022-09-13T16:31:55;23.10;93.10
28947;DHT22;16052;50.930;5.326;2022-09-13T16:34:25;22.90;96.70
28947;DHT22;16052;50.930;5.326;2022-09-13T16:36:50;22.90;99.70
28947;DHT22;16052;50.930;5.326;2022-09-13T16:39:17;22.70;99.90
28947;DHT22;16052;50.930;5.326;2022-09-13T16:41:43;22.70;99.90
28947;DHT22;16052;50.930;5.326;2022-09-13T16:44:08;22.70;99.90
28947;DHT22;16052;50.930;5.326;2022-09-13T16:46:34;23.00;92.00
28947;DHT22;16052;50.930;5.326;2022-09-13T16:49:00;23.00;87.60
28947;DHT22;16052;50.930;5.326;2022-09-13T16:51:25;23.20;81.40
28947;DHT22;16052;50.930;5.326;2022-09-13T16:53:52;23.20;82.90
28947;DHT22;16052;50.930;5.326;2022-09-13T16:56:21;23.20;88.20
28947;DHT22;16052;50.930;5.326;2022-09-13T16:58:47;23.20;93.10
28947;DHT22;16052;50.930;5.326;2022-09-13T17:01:32;23.10;96.50
28947;DHT22;16052;50.930;5.326;2022-09-13T17:03:58;23.10;98.90
28947;DHT22;16052;50.930;5.326;2022-09-13T17:06:25;23.00;99.90
28947;DHT22;16052;50.930;5.326;2022-09-13T17:08:56;23.00;99.50
28947;DHT22;16052;50.930;5.326;2022-09-13T17:11:26;23.00;96.60
28947;DHT22;16052;50.930;5.326;2022-09-13T17:13:53;22.50;99.90
28947;DHT22;16052;50.930;5.326;2022-09-13T17:16:34;22.40;99.90
28947;DHT22;16052;50.930;5.326;2022-09-13T17:19:04;22.20;99.90
28947;DHT22;16052;50.930;5.326;2022-09-13T17:21:30;22.00;99.90
28947;DHT22;16052;50.930;5.326;2022-09-13T17:23:58;21.80;99.90
28947;DHT22;16052;50.930;5.326;2022-09-13T17:26:24;21.70;99.90
28947;DHT22;16052;50.930;5.326;2022-09-13T17:28:51;21.60;99.90
28947;DHT22;16052;50.930;5.326;2022-09-13T17:31:17;21.60;99.90
28947;DHT22;16052;50.930;5.326;2022-09-13T17:33:43;21.30;99.90
28947;DHT22;16052;50.930;5.326;2022-09-13T17:36:11;21.30;99.90
28947;DHT22;16052;50.930;5.326;2022-09-13T17:38:40;21.20;99.90
28947;DHT22;16052;50.930;5.326;2022-09-13T17:41:08;21.30;99.90
28947;DHT22;16052;50.930;5.326;2022-09-13T17:43:35;21.20;99.90
28947;DHT22;16052;50.930;5.326;2022-09-13T17:46:06;21.20;99.90
28947;DHT22;16052;50.930;5.326;2022-09-13T17:48:32;21.30;99.90
28947;DHT22;16052;50.930;5.326;2022-09-13T17:51:11;21.30;99.90
28947;DHT22;16052;50.930;5.326;2022-09-13T17:53:49;21.50;99.90
28947;DHT22;16052;50.930;5.326;2022-09-13T17:56:35;21.50;99.90
28947;DHT22;16052;50.930;5.326;2022-09-13T18:01:34;21.70;99.90
28947;DHT22;16052;50.930;5.326;2022-09-13T18:04:01;21.90;99.90
28947;DHT22;16052;50.930;5.326;2022-09-13T18:06:26;21.90;99.90
28947;DHT22;16052;50.930;5.326;2022-09-13T18:08:52;21.70;99.90
28947;DHT22;16052;50.930;5.326;2022-09-13T18:11:19;21.90;99.90
28947;DHT22;16052;50.930;5.326;2022-09-13T18:13:45;21.90;99.90
28947;DHT22;16052;50.930;5.326;2022-09-13T18:16:16;22.00;99.90
28947;DHT22;16052;50.930;5.326;2022-09-13T18:18:42;21.90;99.90
28947;DHT22;16052;50.930;5.326;2022-09-13T18:21:11;21.90;99.90
28947;DHT22;16052;50.930;5.326;2022-09-13T18:23:39;22.10;99.90
28947;DHT22;16052;50.930;5.326;2022-09-13T18:26:07;22.20;99.90
28947;DHT22;16052;50.930;5.326;2022-09-13T18:28:34;22.10;99.90
28947;DHT22;16052;50.930;5.326;2022-09-13T18:31:02;22.10;99.90
28947;DHT22;16052;50.930;5.326;2022-09-13T18:33:30;22.40;99.90
28947;DHT22;16052;50.930;5.326;2022-09-13T18:36:04;22.10;99.90
28947;DHT22;16052;50.930;5.326;2022-09-13T18:38:48;21.90;99.90
28947;DHT22;16052;50.930;5.326;2022-09-13T18:41:16;21.90;99.90
28947;DHT22;16052;50.930;5.326;2022-09-13T18:43:44;22.10;99.90
28947;DHT22;16052;50.930;5.326;2022-09-13T18:46:12;22.40;99.90
28947;DHT22;16052;50.930;5.326;2022-09-13T18:48:45;22.40;99.90
28947;DHT22;16052;50.930;5.326;2022-09-13T18:51:13;22.50;99.90
28947;DHT22;16052;50.930;5.326;2022-09-13T18:53:39;22.50;99.90
28947;DHT22;16052;50.930;5.326;2022-09-13T18:56:07;22.40;99.90
28947;DHT22;16052;50.930;5.326;2022-09-13T18:58:35;22.50;99.90
28947;DHT22;16052;50.930;5.326;2022-09-13T19:01:15;22.60;99.90
28947;DHT22;16052;50.930;5.326;2022-09-13T19:03:53;22.60;99.90
28947;DHT22;16052;50.930;5.326;2022-09-13T19:06:23;22.50;99.90
28947;DHT22;16052;50.930;5.326;2022-09-13T19:08:49;22.50;99.90
28947;DHT22;16052;50.930;5.326;2022-09-13T19:17:50;22.40;99.90
28947;DHT22;16052;50.930;5.326;2022-09-13T19:20:18;22.30;99.90
28947;DHT22;16052;50.930;5.326;2022-09-13T19:22:51;22.40;99.90